createdAt,value
2019-02-16T00:02:41.746Z,-0.50
2019-02-16T00:07:49.018Z,-0.40
2019-02-16T00:12:56.208Z,-0.50
2019-02-16T00:18:03.420Z,-0.50
2019-02-16T00:23:10.930Z,-0.50
2019-02-16T00:28:18.028Z,-0.60
2019-02-16T00:33:25.151Z,-0.60
2019-02-16T00:38:32.468Z,-0.60
2019-02-16T00:43:42.747Z,-0.60
2019-02-16T00:48:50.834Z,-0.60
2019-02-16T00:53:58.435Z,-0.60
2019-02-16T00:59:05.783Z,-0.60
2019-02-16T01:04:13.209Z,-0.60
2019-02-16T01:09:20.431Z,-0.60
2019-02-16T01:14:27.822Z,-0.60
2019-02-16T01:19:35.044Z,-0.70
2019-02-16T01:24:43.172Z,-0.70
2019-02-16T01:29:50.491Z,-0.70
2019-02-16T01:34:57.626Z,-0.70
2019-02-16T01:40:07.180Z,-0.80
2019-02-16T01:45:14.449Z,-0.80
2019-02-16T01:50:21.539Z,-0.70
2019-02-16T01:55:28.632Z,-0.70
2019-02-16T02:00:36.072Z,-0.80
2019-02-16T02:05:43.762Z,-0.80
2019-02-16T02:10:51.739Z,-0.80
2019-02-16T02:15:59.193Z,-0.80
2019-02-16T02:21:06.411Z,-0.80
2019-02-16T02:26:13.757Z,-0.90
2019-02-16T02:31:21.292Z,-0.90
2019-02-16T02:36:28.514Z,-0.90
2019-02-16T02:41:35.763Z,-0.90
2019-02-16T02:46:42.930Z,-0.90
2019-02-16T02:51:52.510Z,-1.00
2019-02-16T02:57:01.566Z,-1.00
2019-02-16T03:02:09.915Z,-1.10
2019-02-16T03:07:17.117Z,-1.00
2019-02-16T03:12:24.250Z,-1.00
2019-02-16T03:17:31.381Z,-1.10
2019-02-16T03:23:30.767Z,-1.20
2019-02-16T03:28:54.716Z,-1.20
2019-02-16T03:34:07.549Z,-1.20
2019-02-16T03:39:35.309Z,-1.30
2019-02-16T03:44:42.525Z,-1.30
2019-02-16T03:49:49.620Z,-1.30
2019-02-16T03:54:56.723Z,-1.30
2019-02-16T04:00:03.875Z,-1.40
2019-02-16T04:05:11.047Z,-1.40
2019-02-16T04:10:18.420Z,-1.40
2019-02-16T04:15:25.572Z,-1.40
2019-02-16T04:20:32.649Z,-1.40
2019-02-16T04:25:39.834Z,-1.40
2019-02-16T04:30:46.995Z,-1.30
2019-02-16T04:35:54.121Z,-1.30
2019-02-16T04:41:01.302Z,-1.30
2019-02-16T04:46:08.400Z,-1.30
2019-02-16T04:51:15.603Z,-1.30
2019-02-16T04:56:23.285Z,-1.40
2019-02-16T05:01:30.407Z,-1.50
2019-02-16T05:06:38.135Z,-1.50
2019-02-16T05:11:45.447Z,-1.60
2019-02-16T05:16:52.709Z,-1.60
2019-02-16T05:22:00.912Z,-1.60
2019-02-16T05:27:08.110Z,-1.70
2019-02-16T05:32:15.232Z,-1.70
2019-02-16T05:37:22.318Z,-1.70
2019-02-16T05:42:29.625Z,-1.70
2019-02-16T05:47:36.848Z,-1.80
2019-02-16T05:52:53.805Z,-1.80
2019-02-16T05:57:52.666Z,-1.80
2019-02-16T06:03:00.181Z,-1.90
2019-02-16T06:08:07.390Z,-1.90
2019-02-16T06:13:14.466Z,-1.90
2019-02-16T06:18:21.561Z,-1.90
2019-02-16T06:23:28.692Z,-1.90
2019-02-16T06:28:35.829Z,-1.90
2019-02-16T06:33:43.002Z,-1.80
2019-02-16T06:38:50.263Z,-1.80
2019-02-16T06:43:57.392Z,-1.70
2019-02-16T06:49:04.699Z,-1.50
2019-02-16T06:54:12.382Z,-1.40
2019-02-16T06:59:19.607Z,-1.30
2019-02-16T07:04:26.776Z,-1.10
2019-02-16T07:09:34.625Z,-0.90
2019-02-16T07:14:42.209Z,-0.70
2019-02-16T07:19:52.642Z,-0.50
2019-02-16T07:24:59.727Z,-0.20
2019-02-16T07:30:08.754Z,0.00
2019-02-16T07:35:16.072Z,0.20
2019-02-16T07:40:23.275Z,0.40
2019-02-16T07:45:49.249Z,0.60
2019-02-16T07:51:15.428Z,0.70
2019-02-16T07:56:34.648Z,0.80
2019-02-16T08:01:52.205Z,1.00
2019-02-16T08:07:17.278Z,1.20
2019-02-16T08:12:36.718Z,1.40
2019-02-16T08:17:57.272Z,1.60
2019-02-16T08:23:11.785Z,1.80
2019-02-16T08:28:50.038Z,2.00
2019-02-16T08:34:03.192Z,2.20
2019-02-16T08:39:19.146Z,2.40
2019-02-16T08:44:41.853Z,2.60
2019-02-16T08:50:07.897Z,2.80
2019-02-16T08:55:34.352Z,3.00
2019-02-16T09:01:04.213Z,3.30
2019-02-16T09:06:29.067Z,3.40
2019-02-16T09:11:52.064Z,3.70
2019-02-16T09:17:16.619Z,3.80
2019-02-16T09:22:32.251Z,4.00
2019-02-16T09:28:13.467Z,4.30
2019-02-16T09:33:40.570Z,4.40
2019-02-16T09:39:12.831Z,4.70
2019-02-16T09:44:36.335Z,4.90
2019-02-16T09:50:14.749Z,5.30
2019-02-16T09:55:28.224Z,5.50
2019-02-16T10:00:47.893Z,5.90
2019-02-16T10:06:13.903Z,6.20
2019-02-16T10:11:58.284Z,6.50
2019-02-16T10:17:18.664Z,6.70
2019-02-16T10:23:04.007Z,7.10
2019-02-16T10:28:21.116Z,7.40
2019-02-16T10:33:47.078Z,7.80
2019-02-16T10:39:13.279Z,8.00
2019-02-16T10:44:42.398Z,8.30
2019-02-16T10:50:08.481Z,8.50
2019-02-16T10:55:43.360Z,8.90
2019-02-16T11:01:08.242Z,9.20
2019-02-16T11:06:30.708Z,9.40
2019-02-16T11:11:51.881Z,9.70
2019-02-16T11:17:16.526Z,10.00
2019-02-16T11:22:54.913Z,10.20
2019-02-16T11:28:19.858Z,10.30
2019-02-16T11:33:47.829Z,10.50
2019-02-16T11:39:16.671Z,10.60
2019-02-16T11:44:45.396Z,10.80
2019-02-16T11:50:08.538Z,11.00
2019-02-16T11:55:34.742Z,11.30
2019-02-16T12:01:00.334Z,11.60
2019-02-16T12:06:16.377Z,11.90
2019-02-16T12:11:40.983Z,12.30
2019-02-16T12:17:05.370Z,12.70
2019-02-16T12:22:46.663Z,13.30
2019-02-16T12:28:21.662Z,16.00
2019-02-16T12:33:58.324Z,20.20
2019-02-16T12:39:25.444Z,23.10
2019-02-16T12:44:54.874Z,25.90
2019-02-16T12:50:19.773Z,28.20
2019-02-16T12:55:52.281Z,30.50
2019-02-16T13:01:12.545Z,30.90
2019-02-16T13:06:27.540Z,32.30
2019-02-16T13:11:50.515Z,32.30
2019-02-16T13:17:16.543Z,32.50
2019-02-16T13:22:32.107Z,33.40
2019-02-16T13:28:03.973Z,33.60
2019-02-16T13:33:28.561Z,33.90
2019-02-16T13:38:48.049Z,33.90
2019-02-16T13:44:09.200Z,34.60
2019-02-16T13:49:24.967Z,34.50
2019-02-16T13:54:50.972Z,34.30
2019-02-16T14:00:38.128Z,34.30
2019-02-16T14:06:02.957Z,34.10
2019-02-16T14:11:28.173Z,34.30
2019-02-16T14:17:02.004Z,34.80
2019-02-16T14:22:09.451Z,34.40
2019-02-16T14:27:16.600Z,34.00
2019-02-16T14:32:23.822Z,33.50
2019-02-16T14:37:53.025Z,33.20
2019-02-16T14:43:01.648Z,32.60
2019-02-16T14:48:10.820Z,32.20
2019-02-16T14:53:18.029Z,31.70
2019-02-16T14:58:25.207Z,31.30
2019-02-16T15:03:32.304Z,30.70
2019-02-16T15:08:40.574Z,29.80
2019-02-16T15:13:47.839Z,29.50
2019-02-16T15:18:55.184Z,29.50
2019-02-16T15:24:02.364Z,28.60
2019-02-16T15:29:09.640Z,27.30
2019-02-16T15:34:16.767Z,26.40
2019-02-16T15:39:24.069Z,24.10
2019-02-16T15:44:33.057Z,20.10
2019-02-16T15:49:41.146Z,17.10
2019-02-16T15:54:48.587Z,15.10
2019-02-16T15:59:55.765Z,13.90
2019-02-16T16:05:03.380Z,13.00
2019-02-16T16:10:27.912Z,12.30
2019-02-16T16:15:54.408Z,11.70
2019-02-16T16:21:12.617Z,11.20
2019-02-16T16:43:53.370Z,9.90
2019-02-16T16:49:38.478Z,9.80
2019-02-16T16:55:04.577Z,9.60
2019-02-16T17:00:30.955Z,9.40
2019-02-16T17:05:56.671Z,9.20
2019-02-16T17:11:22.625Z,9.10
2019-02-16T17:16:47.181Z,9.00
2019-02-16T17:22:04.831Z,8.90
2019-02-16T17:27:36.589Z,8.70
2019-02-16T17:32:53.239Z,8.60
2019-02-16T17:38:18.257Z,8.50
2019-02-16T17:43:43.232Z,8.30
2019-02-16T17:49:18.492Z,8.20
2019-02-16T17:54:33.566Z,8.10
2019-02-16T17:59:59.516Z,8.10
2019-02-16T18:05:20.457Z,8.00
2019-02-16T18:10:55.552Z,7.80
2019-02-16T18:16:37.158Z,7.80
2019-02-16T18:22:07.251Z,7.70
2019-02-16T18:27:43.848Z,7.60
2019-02-16T18:33:02.689Z,7.60
2019-02-16T18:38:29.849Z,7.60
2019-02-16T18:43:56.320Z,7.50
2019-02-16T18:49:22.332Z,7.40
2019-02-16T18:54:48.286Z,7.50
2019-02-16T19:00:03.430Z,7.40
2019-02-16T19:05:28.359Z,7.40
2019-02-16T19:10:54.809Z,7.20
2019-02-16T19:16:20.778Z,7.10
2019-02-16T19:21:49.827Z,6.90
2019-02-16T19:27:16.963Z,6.80
2019-02-16T19:32:39.685Z,6.70
2019-02-16T19:38:07.864Z,6.60
2019-02-16T19:43:28.243Z,6.50
2019-02-16T19:49:00.368Z,6.40
2019-02-16T19:54:14.954Z,6.30
2019-02-16T19:59:39.465Z,6.20
2019-02-16T20:05:17.717Z,6.10
2019-02-16T20:10:46.802Z,6.00
2019-02-16T20:16:30.973Z,5.90
2019-02-16T20:21:59.574Z,5.70
2019-02-16T20:27:20.710Z,5.50
2019-02-16T20:32:45.966Z,5.50
2019-02-16T20:38:11.938Z,5.40
2019-02-16T20:43:24.506Z,5.30
2019-02-16T20:49:01.183Z,5.20
2019-02-16T20:54:30.270Z,5.10
2019-02-16T20:59:56.396Z,5.00
2019-02-16T21:05:12.266Z,5.10
2019-02-16T21:10:35.095Z,5.20
2019-02-16T21:15:48.853Z,5.20
2019-02-16T21:21:13.591Z,5.20
2019-02-16T21:26:42.484Z,5.30
2019-02-16T21:31:55.954Z,5.60
2019-02-16T21:37:21.954Z,5.70
2019-02-16T21:42:51.242Z,5.90
2019-02-16T21:48:17.535Z,6.10
2019-02-16T21:53:49.642Z,6.30
2019-02-16T21:59:20.187Z,6.50
2019-02-16T22:04:45.697Z,6.60
2019-02-16T22:10:10.617Z,6.70
2019-02-16T22:15:17.820Z,6.60
2019-02-16T22:20:25.094Z,6.60
2019-02-16T22:25:39.453Z,6.60
2019-02-16T22:30:46.518Z,6.60
2019-02-16T22:35:53.637Z,6.70
2019-02-16T22:41:00.848Z,6.80
2019-02-16T22:46:08.188Z,6.70
2019-02-16T22:51:15.657Z,6.60
2019-02-16T22:56:22.867Z,6.60
2019-02-16T23:01:30.251Z,6.60
2019-02-16T23:06:37.465Z,6.60
2019-02-16T23:11:44.687Z,6.60
2019-02-16T23:16:51.962Z,6.70
2019-02-16T23:21:59.032Z,6.60
2019-02-16T23:27:06.641Z,6.70
2019-02-16T23:32:13.741Z,6.80
2019-02-16T23:37:20.889Z,6.90
2019-02-16T23:42:28.064Z,6.90
2019-02-16T23:47:35.065Z,6.80
2019-02-16T23:52:42.234Z,6.80
2019-02-16T23:57:49.729Z,6.80
